Time;durP1;ratioP1;P1;durP2;ratioP2;P2;SDS_P1;SDS_P2;PMS_P1;PMS_P2;Temp;Humidity;BMP_temperature;BMP_pressure;BME280_temperature;BME280_humidity;BME280_pressure;Samples;Min_cycle;Max_cycle;Signal;HPM_P1;HPM_P2
2023/10/06 00:02:19;;;;;;;12.27;6.50;;;;;;;8.25;100.00;99252.16;5073986;28;20285;-78
2023/10/06 00:04:45;;;;;;;9.70;6.00;;;;;;;8.25;100.00;99253.94;5074527;28;20212;-78
2023/10/06 00:07:14;;;;;;;9.07;5.63;;;;;;;8.22;100.00;99251.44;5074783;28;20280;-79
2023/10/06 00:09:43;;;;;;;9.43;5.60;;;;;;;8.23;100.00;99261.06;5074367;28;20219;-78
2023/10/06 00:12:13;;;;;;;9.63;5.57;;;;;;;8.19;100.00;99254.16;5072805;28;20306;-79
2023/10/06 00:14:40;;;;;;;9.90;5.63;;;;;;;8.20;100.00;99259.41;5071501;28;20257;-79
2023/10/06 00:17:15;;;;;;;9.00;5.60;;;;;;;8.15;100.00;99260.50;5071605;28;20204;-79
2023/10/06 00:19:44;;;;;;;9.60;5.70;;;;;;;8.08;100.00;99251.97;5056566;28;20301;-79
2023/10/06 00:22:17;;;;;;;10.07;5.73;;;;;;;8.01;100.00;99268.94;5055521;28;20228;-79
2023/10/06 00:24:46;;;;;;;10.97;5.20;;;;;;;7.92;100.00;99252.69;5056222;28;20215;-79
2023/10/06 00:27:13;;;;;;;9.33;5.67;;;;;;;7.91;100.00;99254.44;5055690;28;20772;-79
2023/10/06 00:29:43;;;;;;;10.27;6.17;;;;;;;7.96;100.00;99254.28;5056003;28;20208;-79
2023/10/06 00:32:22;;;;;;;11.47;6.67;;;;;;;8.01;100.00;99260.19;5055892;28;20243;-79
2023/10/06 00:34:55;;;;;;;11.93;6.23;;;;;;;8.00;100.00;99255.84;5055500;28;20208;-79
2023/10/06 00:37:23;;;;;;;12.83;6.10;;;;;;;8.07;100.00;99257.31;5055360;28;20211;-79
2023/10/06 00:39:52;;;;;;;11.93;6.47;;;;;;;8.05;100.00;99245.97;5055764;28;20221;-79
2023/10/06 00:42:26;;;;;;;15.57;7.03;;;;;;;8.07;100.00;99249.41;5055482;28;20243;-79
2023/10/06 00:44:53;;;;;;;10.43;6.27;;;;;;;8.09;100.00;99242.31;5055673;28;20727;-79
2023/10/06 00:47:21;;;;;;;13.87;6.70;;;;;;;8.13;100.00;99238.63;5055499;28;20211;-79
2023/10/06 00:49:48;;;;;;;10.40;7.40;;;;;;;8.16;100.00;99242.00;5054858;28;20214;-79
2023/10/06 00:52:16;;;;;;;13.30;7.60;;;;;;;8.21;100.00;99233.94;5054670;28;20267;-79
2023/10/06 00:54:44;;;;;;;13.40;8.13;;;;;;;8.21;100.00;99229.50;5055365;28;20208;-78
2023/10/06 00:57:12;;;;;;;14.60;8.90;;;;;;;8.23;100.00;99226.81;5055271;28;20246;-79
2023/10/06 00:59:39;;;;;;;17.60;8.70;;;;;;;8.26;100.00;99226.69;5054588;28;20241;-79
2023/10/06 01:02:09;;;;;;;13.73;8.73;;;;;;;8.26;100.00;99226.69;5054104;28;20241;-79
2023/10/06 01:04:42;;;;;;;14.33;8.00;;;;;;;8.25;100.00;99230.22;5054268;28;20237;-78
2023/10/06 01:07:09;;;;;;;12.70;8.17;;;;;;;8.26;100.00;99226.69;5053964;28;20302;-79
2023/10/06 01:09:37;;;;;;;14.60;7.60;;;;;;;8.21;100.00;99220.78;5053732;28;20574;-78
2023/10/06 01:12:06;;;;;;;11.73;7.20;;;;;;;8.17;100.00;99221.78;5053343;28;20238;-78
2023/10/06 01:14:34;;;;;;;14.80;7.57;;;;;;;8.10;100.00;99221.19;5053708;28;20208;-80
2023/10/06 01:17:14;;;;;;;13.10;7.60;;;;;;;8.03;100.00;99217.06;5053711;28;20208;-77
2023/10/06 01:19:47;;;;;;;12.40;7.30;;;;;;;7.96;100.00;99220.06;5053898;28;20203;-78
2023/10/06 01:22:22;;;;;;;10.27;6.23;;;;;;;7.89;100.00;99227.34;5053755;28;20238;-78
2023/10/06 01:24:50;;;;;;;10.43;5.70;;;;;;;7.81;100.00;99224.19;5054061;28;20225;-78
2023/10/06 01:27:16;;;;;;;13.13;5.67;;;;;;;7.71;100.00;99227.25;5053665;28;20211;-78
2023/10/06 01:29:43;;;;;;;11.00;6.17;;;;;;;7.55;100.00;99221.75;5035485;28;20572;-78
2023/10/06 01:32:10;;;;;;;11.50;5.73;;;;;;;7.49;100.00;99222.00;5053265;28;20236;-78
2023/10/06 01:34:38;;;;;;;8.50;5.40;;;;;;;7.44;100.00;99218.69;5053611;28;20212;-77
2023/10/06 01:37:05;;;;;;;8.37;5.13;;;;;;;7.40;100.00;99217.06;5035874;28;20219;-78
2023/10/06 01:39:35;;;;;;;10.03;5.70;;;;;;;7.38;100.00;99222.47;5053194;28;20206;-78
2023/10/06 01:42:04;;;;;;;11.00;5.77;;;;;;;7.38;100.00;99223.31;5052271;28;20221;-77
2023/10/06 01:44:31;;;;;;;8.07;5.77;;;;;;;7.32;100.00;99219.16;5052383;28;20218;-77
2023/10/06 01:46:58;;;;;;;8.83;5.53;;;;;;;7.28;100.00;99222.81;5052543;28;20200;-77
2023/10/06 01:49:25;;;;;;;11.30;6.10;;;;;;;7.25;100.00;99219.44;5034797;28;20216;-77
2023/10/06 01:51:52;;;;;;;10.27;6.70;;;;;;;7.22;100.00;99216.94;5052223;28;20241;-77
2023/10/06 01:54:27;;;;;;;11.47;7.37;;;;;;;7.24;100.00;99215.13;5052434;28;20651;-77
2023/10/06 01:56:55;;;;;;;14.50;7.30;;;;;;;7.28;100.00;99211.47;5052448;28;20265;-77
2023/10/06 01:59:21;;;;;;;12.17;8.03;;;;;;;7.32;100.00;99210.41;5052378;28;20222;-79
2023/10/06 02:01:49;;;;;;;14.93;8.67;;;;;;;7.38;100.00;99213.66;5052095;28;20223;-77
2023/10/06 02:04:16;;;;;;;14.23;8.87;;;;;;;7.41;100.00;99207.44;5052462;28;20226;-78
2023/10/06 02:06:44;;;;;;;15.47;9.03;;;;;;;7.47;100.00;99204.56;5052659;28;20251;-78
2023/10/06 02:09:15;;;;;;;13.70;8.93;;;;;;;7.46;100.00;99215.97;5052768;28;20219;-78
2023/10/06 02:11:43;;;;;;;15.03;8.90;;;;;;;7.45;100.00;99209.00;5052545;28;20236;-78
2023/10/06 02:14:11;;;;;;;14.97;8.20;;;;;;;7.48;100.00;99204.47;5052730;28;20221;-78
2023/10/06 02:16:37;;;;;;;17.03;9.90;;;;;;;7.47;100.00;99196.66;5052745;28;20716;-78
2023/10/06 02:19:08;;;;;;;15.10;8.83;;;;;;;7.48;100.00;99204.47;5052438;28;20221;-77
2023/10/06 02:21:36;;;;;;;13.60;8.40;;;;;;;7.45;100.00;99199.34;5052281;28;20257;-78
2023/10/06 02:24:05;;;;;;;13.97;9.27;;;;;;;7.43;100.00;99192.44;5052081;28;20212;-78
2023/10/06 02:26:35;;;;;;;14.80;8.00;;;;;;;7.38;100.00;99203.13;5052709;28;20584;-78
2023/10/06 02:29:03;;;;;;;12.07;7.23;;;;;;;7.28;100.00;99206.19;5052501;28;20313;-78
2023/10/06 02:31:31;;;;;;;13.63;7.90;;;;;;;7.28;100.00;99206.19;5051866;28;20239;-80
2023/10/06 02:33:57;;;;;;;10.40;6.63;;;;;;;7.17;100.00;99197.88;5052097;28;20557;-77
2023/10/06 02:36:24;;;;;;;9.47;6.50;;;;;;;7.11;100.00;99197.22;5052157;28;20214;-78
2023/10/06 02:38:52;;;;;;;14.87;8.17;;;;;;;7.11;100.00;99198.09;5052715;28;20224;-77
2023/10/06 02:41:19;;;;;;;15.63;9.43;;;;;;;7.22;100.00;99187.16;5052401;28;20238;-77
2023/10/06 02:43:47;;;;;;;18.57;9.33;;;;;;;7.19;100.00;99185.50;5056757;28;20221;-77
2023/10/06 02:46:15;;;;;;;14.37;8.90;;;;;;;7.17;100.00;99182.09;5058416;28;20223;-78
2023/10/06 02:48:48;;;;;;;16.17;8.70;;;;;;;7.12;100.00;99199.81;5052116;28;20217;-78
2023/10/06 02:51:20;;;;;;;13.53;8.60;;;;;;;7.10;100.00;99196.41;5056788;28;20242;-78
2023/10/06 02:53:50;;;;;;;13.20;7.90;;;;;;;7.05;100.00;99194.84;5054498;28;20246;-78
2023/10/06 02:56:21;;;;;;;14.30;8.10;;;;;;;6.94;100.00;99203.13;5051926;28;20212;-77
2023/10/06 02:58:50;;;;;;;13.13;6.50;;;;;;;6.89;100.00;99206.88;5052046;28;20204;-78
2023/10/06 03:01:17;;;;;;;14.63;7.87;;;;;;;6.89;100.00;99202.44;5051549;28;20705;-78
2023/10/06 03:03:45;;;;;;;10.93;7.03;;;;;;;6.90;100.00;99195.44;5051716;28;20566;-78
2023/10/06 03:06:16;;;;;;;12.17;7.13;;;;;;;6.90;100.00;99188.38;5051944;28;20214;-78
2023/10/06 03:08:43;;;;;;;9.20;6.33;;;;;;;6.85;100.00;99192.94;5052217;28;20211;-79
2023/10/06 03:11:22;;;;;;;9.97;6.90;;;;;;;6.86;100.00;99185.94;5054135;28;20240;-79
2023/10/06 03:13:49;;;;;;;10.63;7.10;;;;;;;6.85;100.00;99189.50;5057043;28;20234;-78
2023/10/06 03:16:19;;;;;;;13.70;8.20;;;;;;;6.89;100.00;99196.34;5038885;28;20205;-79
2023/10/06 03:18:52;;;;;;;14.03;9.20;;;;;;;6.92;100.00;99197.09;5057392;28;20209;-78
2023/10/06 03:21:18;;;;;;;12.47;7.57;;;;;;;6.91;100.00;99192.72;5056223;28;20227;-78
2023/10/06 03:23:47;;;;;;;12.50;7.20;;;;;;;6.89;100.00;99196.34;5055653;28;20216;-78
2023/10/06 03:26:21;;;;;;;8.70;6.17;;;;;;;6.80;100.00;99202.81;5055664;28;20215;-78
2023/10/06 03:28:50;;;;;;;8.33;5.60;;;;;;;6.69;100.00;99197.09;5056045;28;20224;-78
2023/10/06 03:31:24;;;;;;;9.07;5.80;;;;;;;6.60;100.00;99205.28;5055303;28;20237;-78
2023/10/06 03:33:54;;;;;;;8.23;5.03;;;;;;;6.50;100.00;99193.44;5055629;28;20207;-78
2023/10/06 03:36:28;;;;;;;8.97;5.20;;;;;;;6.39;100.00;99200.81;5055482;28;20308;-78
2023/10/06 03:38:55;;;;;;;7.80;5.07;;;;;;;6.37;100.00;99199.16;5055327;28;20210;-78
2023/10/06 03:41:26;;;;;;;9.67;5.00;;;;;;;6.36;100.00;99195.66;5055354;28;20577;-78
2023/10/06 03:43:54;;;;;;;8.97;5.60;;;;;;;6.38;100.00;99199.13;5055778;28;20222;-78
2023/10/06 03:46:22;;;;;;;7.13;4.67;;;;;;;6.34;100.00;99197.50;5055263;28;20215;-78
2023/10/06 03:48:49;;;;;;;10.93;5.80;;;;;;;6.31;100.00;99192.38;5054948;28;20304;-78
2023/10/06 03:51:18;;;;;;;11.07;6.03;;;;;;;6.33;100.00;99189.66;5054540;28;20244;-78
2023/10/06 03:53:47;;;;;;;8.33;5.83;;;;;;;6.34;100.00;99179.13;5055143;28;20207;-78
2023/10/06 03:56:13;;;;;;;11.30;7.17;;;;;;;6.42;100.00;99184.94;5054898;28;20210;-77
2023/10/06 03:58:40;;;;;;;13.77;7.73;;;;;;;6.50;100.00;99175.03;5055011;28;20298;-78
2023/10/06 04:01:09;;;;;;;12.97;6.97;;;;;;;6.55;100.00;99178.34;5054555;28;20237;-77
2023/10/06 04:03:36;;;;;;;12.33;7.70;;;;;;;6.57;100.00;99175.66;5054651;28;20218;-78
2023/10/06 04:06:03;;;;;;;12.67;7.33;;;;;;;6.60;100.00;99173.78;5054526;28;20669;-78
2023/10/06 04:08:31;;;;;;;9.90;6.83;;;;;;;6.62;100.00;99177.22;5054800;28;20206;-78
2023/10/06 04:10:58;;;;;;;11.40;6.87;;;;;;;6.60;100.00;99168.50;5054550;28;20242;-78
2023/10/06 04:13:25;;;;;;;10.87;6.47;;;;;;;6.60;100.00;99165.88;5054442;28;20686;-78
2023/10/06 04:15:53;;;;;;;12.77;7.17;;;;;;;6.59;100.00;99165.97;5054488;28;20219;-78
2023/10/06 04:18:22;;;;;;;13.63;7.30;;;;;;;6.57;100.00;99168.66;5054523;28;20265;-78
2023/10/06 04:20:50;;;;;;;15.43;8.47;;;;;;;6.59;100.00;99163.34;5054451;28;20245;-78
2023/10/06 04:23:18;;;;;;;12.60;7.73;;;;;;;6.65;100.00;99168.38;5053580;28;20216;-78
2023/10/06 04:25:46;;;;;;;14.73;8.13;;;;;;;6.65;100.00;99163.97;5054831;28;20214;-78
2023/10/06 04:28:14;;;;;;;12.30;7.80;;;;;;;6.66;100.00;99157.78;5054348;28;20293;-77
2023/10/06 04:30:43;;;;;;;10.83;7.60;;;;;;;6.67;100.00;99164.78;5054197;28;20688;-78
2023/10/06 04:33:10;;;;;;;13.17;7.87;;;;;;;6.65;100.00;99161.31;5053681;28;20238;-78
2023/10/06 04:35:40;;;;;;;11.63;8.33;;;;;;;6.68;100.00;99166.47;5054354;28;20267;-78
2023/10/06 04:38:10;;;;;;;16.00;7.83;;;;;;;6.73;100.00;99163.69;5054375;28;20251;-78
2023/10/06 04:40:36;;;;;;;13.27;7.50;;;;;;;6.72;100.00;99168.06;5054587;28;20245;-78
2023/10/06 04:43:04;;;;;;;14.53;7.70;;;;;;;6.73;100.00;99167.13;5054381;28;20200;-78
2023/10/06 04:45:31;;;;;;;14.40;8.40;;;;;;;6.76;100.00;99164.41;5054368;28;20216;-78
2023/10/06 04:48:00;;;;;;;11.97;8.17;;;;;;;6.76;100.00;99171.44;5054214;28;20286;-78
2023/10/06 04:50:28;;;;;;;16.07;8.37;;;;;;;6.74;100.00;99160.13;5036040;28;20216;-78
2023/10/06 04:52:55;;;;;;;13.00;8.03;;;;;;;6.76;100.00;99164.41;5053655;28;20257;-78
2023/10/06 04:55:21;;;;;;;15.20;9.23;;;;;;;6.75;100.00;99156.59;5054003;28;20204;-78
2023/10/06 04:57:48;;;;;;;14.37;8.90;;;;;;;6.74;100.00;99155.75;5054210;28;20666;-77
2023/10/06 05:00:21;;;;;;;17.70;9.07;;;;;;;6.74;100.00;99161.00;5054404;28;20219;-78
2023/10/06 05:02:48;;;;;;;14.43;8.70;;;;;;;6.71;100.00;99165.50;5053272;28;20232;-77
2023/10/06 05:05:19;;;;;;;12.30;7.93;;;;;;;6.63;100.00;99165.78;5053761;28;20253;-78
2023/10/06 05:07:46;;;;;;;12.07;7.73;;;;;;;6.52;100.00;99160.06;5053482;28;20666;-77
2023/10/06 05:10:13;;;;;;;12.53;8.00;;;;;;;6.41;100.00;99141.22;5053575;28;20219;-78
2023/10/06 05:12:42;;;;;;;12.33;8.40;;;;;;;6.35;100.00;99146.69;5052904;28;20240;-78
2023/10/06 05:15:14;;;;;;;16.60;9.03;;;;;;;6.37;100.00;99144.91;5053567;28;20259;-78
2023/10/06 05:17:43;;;;;;;14.20;9.07;;;;;;;6.43;100.00;99149.06;5053546;28;20578;-77
2023/10/06 05:20:19;;;;;;;14.90;9.20;;;;;;;6.48;100.00;99157.63;5053282;28;20212;-77
2023/10/06 05:22:46;;;;;;;13.83;10.00;;;;;;;6.50;100.00;99151.41;5052804;28;20237;-77
2023/10/06 05:25:14;;;;;;;16.17;9.23;;;;;;;6.55;100.00;99154.72;5053228;28;20630;-77
2023/10/06 05:27:42;;;;;;;19.13;10.57;;;;;;;6.61;100.00;99164.13;5053379;28;20262;-77
2023/10/06 05:30:13;;;;;;;17.50;9.43;;;;;;;6.61;100.00;99165.00;5053535;28;20310;-84
2023/10/06 05:32:42;;;;;;;15.07;9.03;;;;;;;6.66;100.00;99163.03;5053963;28;20231;-82
2023/10/06 05:35:13;;;;;;;20.17;10.17;;;;;;;6.64;100.00;99167.50;5053552;28;20244;-80
2023/10/06 05:37:43;;;;;;;16.63;9.07;;;;;;;6.65;100.00;99161.31;5054042;28;20297;-80
2023/10/06 05:40:16;;;;;;;17.40;9.17;;;;;;;6.62;100.00;99171.97;5054235;28;20270;-81
2023/10/06 05:42:49;;;;;;;13.40;9.03;;;;;;;6.65;100.00;99173.63;5053847;28;20235;-81
2023/10/06 05:45:18;;;;;;;19.73;10.50;;;;;;;6.69;100.00;99178.69;5053804;28;20245;-80
2023/10/06 05:47:48;;;;;;;15.37;9.23;;;;;;;6.66;100.00;99178.78;5054283;28;20308;-80
2023/10/06 05:50:27;;;;;;;13.97;7.53;;;;;;;6.60;100.00;99188.69;5054334;28;20686;-81
2023/10/06 05:52:59;;;;;;;14.90;7.63;;;;;;;6.52;100.00;99191.59;5053486;28;20704;-80
2023/10/06 05:55:30;;;;;;;15.00;8.90;;;;;;;6.51;100.00;99197.75;5053415;28;20637;-80
2023/10/06 05:57:58;;;;;;;19.67;8.37;;;;;;;6.54;100.00;99202.03;5053368;28;20240;-80
2023/10/06 06:00:27;;;;;;;14.17;8.17;;;;;;;6.60;100.00;99200.03;5053672;28;20207;-80
2023/10/06 06:02:54;;;;;;;14.23;8.50;;;;;;;6.60;100.00;99200.03;5053675;28;20212;-79
2023/10/06 06:05:22;;;;;;;16.40;9.07;;;;;;;6.64;100.00;99201.66;5054038;28;20208;-81
2023/10/06 06:07:51;;;;;;;13.47;8.20;;;;;;;6.73;100.00;99195.19;5053461;28;20261;-82
2023/10/06 06:10:18;;;;;;;13.97;9.20;;;;;;;6.78;100.00;99198.53;5053520;28;20220;-82
2023/10/06 06:12:45;;;;;;;13.23;7.90;;;;;;;6.82;100.00;99202.72;5053383;28;20240;-82
2023/10/06 06:15:12;;;;;;;13.47;7.80;;;;;;;6.87;100.00;99196.41;5053576;28;20242;-77
2023/10/06 06:17:40;;;;;;;11.27;8.00;;;;;;;6.88;100.00;99205.13;5051507;28;20236;-78
2023/10/06 06:20:08;;;;;;;10.43;7.13;;;;;;;6.96;100.00;99203.09;5052044;28;20299;-77
2023/10/06 06:22:37;;;;;;;13.60;7.57;;;;;;;7.02;100.00;99203.69;5052142;28;20613;-77
2023/10/06 06:25:06;;;;;;;10.33;6.40;;;;;;;7.01;100.00;99209.88;5051699;28;20211;-77
2023/10/06 06:27:32;;;;;;;10.47;7.00;;;;;;;7.03;100.00;99210.66;5051451;28;20244;-77
2023/10/06 06:29:59;;;;;;;11.03;6.63;;;;;;;7.08;100.00;99208.72;5051804;28;20557;-76
2023/10/06 06:32:26;;;;;;;9.13;6.33;;;;;;;7.13;100.00;99216.41;5051212;28;20257;-77
2023/10/06 06:34:53;;;;;;;9.57;6.97;;;;;;;7.16;100.00;99211.06;5051954;28;20220;-78
2023/10/06 06:37:20;;;;;;;10.10;6.43;;;;;;;7.20;100.00;99224.03;5051948;28;20205;-78
2023/10/06 06:39:48;;;;;;;10.50;7.07;;;;;;;7.32;100.00;99210.41;5052377;28;20213;-77
2023/10/06 06:42:15;;;;;;;11.10;7.33;;;;;;;7.34;100.00;99209.44;5051802;28;20265;-80
2023/10/06 06:44:47;;;;;;;14.13;7.67;;;;;;;7.42;100.00;99211.75;5052213;28;20219;-78
2023/10/06 06:47:16;;;;;;;11.03;7.00;;;;;;;7.50;100.00;99207.91;5051496;28;20208;-78
2023/10/06 06:49:43;;;;;;;10.93;7.03;;;;;;;7.53;100.00;99206.94;5052385;28;20205;-80
2023/10/06 06:52:09;;;;;;;12.47;7.10;;;;;;;7.62;100.00;99210.06;5051905;28;20279;-80
2023/10/06 06:54:38;;;;;;;9.90;7.07;;;;;;;7.68;100.00;99206.31;5052036;28;20465;-79
2023/10/06 06:57:06;;;;;;;13.10;8.30;;;;;;;7.77;100.00;99211.22;5052404;28;20212;-79
2023/10/06 06:59:33;;;;;;;13.13;8.23;;;;;;;7.86;100.00;99208.19;5052467;28;20213;-78
2023/10/06 07:01:59;;;;;;;12.97;8.57;;;;;;;7.95;100.00;99205.19;5052166;28;20253;-79
2023/10/06 07:04:29;;;;;;;14.43;8.27;;;;;;;8.03;100.00;99208.34;5052535;28;20590;-79
2023/10/06 07:06:55;;;;;;;15.00;8.40;;;;;;;8.11;100.00;99208.88;5052313;28;20227;-79
2023/10/06 07:09:22;;;;;;;15.37;9.10;;;;;;;8.16;100.00;99205.13;5052068;28;20215;-79
2023/10/06 07:11:49;;;;;;;13.87;8.93;;;;;;;8.30;100.00;99204.56;5052025;28;20734;-79
2023/10/06 07:14:18;;;;;;;12.07;8.03;;;;;;;8.34;100.00;99203.50;5052340;28;20235;-79
2023/10/06 07:16:46;;;;;;;11.43;8.57;;;;;;;8.44;100.00;99204.84;5052840;28;20265;-84
2023/10/06 07:19:14;;;;;;;15.27;9.23;;;;;;;8.50;100.00;99205.41;5053767;28;20211;-85
2023/10/06 07:21:41;;;;;;;14.80;9.53;;;;;;;8.60;100.00;99203.22;5051892;28;20230;-79
2023/10/06 07:24:10;;;;;;;17.27;9.73;;;;;;;8.70;100.00;99207.16;5051753;28;20204;-79
2023/10/06 07:26:37;;;;;;;19.63;9.80;;;;;;;8.86;100.00;99209.03;5052160;28;20215;-79
2023/10/06 07:29:05;;;;;;;18.33;10.03;;;;;;;8.97;100.00;99206.78;5052342;28;20234;-79
2023/10/06 07:31:33;;;;;;;17.77;11.30;;;;;;;9.16;100.00;99212.91;5051845;28;20266;-80
2023/10/06 07:34:02;;;;;;;16.63;10.27;;;;;;;9.32;100.00;99207.78;5051806;28;20231;-79
2023/10/06 07:36:35;;;;;;;18.97;10.37;;;;;;;9.40;100.00;99211.75;5051923;28;20243;-79
2023/10/06 07:39:03;;;;;;;15.93;10.67;;;;;;;9.50;100.00;99212.19;5052112;28;20632;-80
2023/10/06 07:41:30;;;;;;;18.60;10.03;;;;;;;9.59;100.00;99215.22;5051925;28;20225;-80
2023/10/06 07:43:57;;;;;;;13.07;9.67;;;;;;;9.63;100.00;99208.88;5051955;28;20227;-80
2023/10/06 07:46:23;;;;;;;13.50;10.20;;;;;;;9.73;100.00;99217.22;5051992;28;20227;-81
2023/10/06 07:48:51;;;;;;;13.50;9.07;;;;;;;9.80;100.00;99205.41;5053431;28;20211;-82
2023/10/06 07:51:17;;;;;;;15.57;10.00;;;;;;;9.95;100.00;99204.63;5053046;28;20238;-81
2023/10/06 07:53:45;;;;;;;14.23;9.23;;;;;;;10.05;100.00;99204.16;5052354;28;20667;-77
2023/10/06 07:56:14;;;;;;;16.63;10.17;;;;;;;10.15;100.00;99210.66;5051785;28;20231;-78
2023/10/06 07:58:41;;;;;;;12.57;9.00;;;;;;;10.17;100.00;99215.88;5055670;28;20698;-79
2023/10/06 08:01:09;;;;;;;12.53;8.80;;;;;;;10.26;100.00;99220.69;5055343;28;20294;-79
2023/10/06 08:03:38;;;;;;;11.33;9.27;;;;;;;10.38;100.00;99215.66;5055438;28;20208;-79
2023/10/06 08:06:07;;;;;;;12.47;9.10;;;;;;;10.53;100.00;99211.38;5055704;28;20243;-79
2023/10/06 08:08:34;;;;;;;16.53;8.53;;;;;;;10.63;100.00;99215.22;5055618;28;20222;-79
2023/10/06 08:11:01;;;;;;;14.60;8.90;;;;;;;10.75;100.00;99214.56;5055552;28;20801;-79
2023/10/06 08:13:28;;;;;;;13.33;8.70;;;;;;;10.86;100.00;99212.22;5055295;28;20228;-79
2023/10/06 08:15:55;;;;;;;12.73;7.90;;;;;;;11.00;100.00;99209.72;5055438;28;20208;-79
2023/10/06 08:18:21;;;;;;;15.37;8.90;;;;;;;11.13;100.00;99210.75;5055714;28;20223;-79
2023/10/06 08:20:48;;;;;;;11.57;8.50;;;;;;;11.21;100.00;99208.53;5055586;28;20286;-79
2023/10/06 08:23:16;;;;;;;12.93;8.40;;;;;;;11.29;100.00;99201.88;5055067;28;20212;-79
2023/10/06 08:25:44;;;;;;;11.50;7.63;;;;;;;11.43;100.00;99203.78;5055324;28;20239;-79
2023/10/06 08:28:11;;;;;;;13.17;7.80;;;;;;;11.52;100.00;99208.53;5055481;28;20262;-79
2023/10/06 08:30:37;;;;;;;12.93;8.23;;;;;;;11.62;100.00;99215.91;5055748;28;20262;-79
2023/10/06 08:33:08;;;;;;;11.77;7.83;;;;;;;11.73;100.00;99199.44;5055518;28;20232;-79
2023/10/06 08:35:35;;;;;;;12.03;7.40;;;;;;;11.88;100.00;99196.78;5055726;28;20215;-79
2023/10/06 08:38:02;;;;;;;11.37;7.97;;;;;;;12.00;100.00;99205.78;5042804;28;20208;-79
2023/10/06 08:40:32;;;;;;;12.07;8.00;;;;;;;12.03;100.00;99201.16;5068916;28;20283;-79
2023/10/06 08:42:59;;;;;;;11.13;7.40;;;;;;;12.18;100.00;99216.16;5069701;28;20219;-79
2023/10/06 08:45:27;;;;;;;9.97;7.47;;;;;;;12.34;100.00;99216.13;5054583;28;20257;-79
2023/10/06 08:47:58;;;;;;;12.57;8.03;;;;;;;12.46;100.00;99215.41;5054568;28;20219;-79
2023/10/06 08:50:27;;;;;;;10.33;7.47;;;;;;;12.58;100.00;99214.66;5072637;28;20752;-79
2023/10/06 08:52:56;;;;;;;13.37;7.53;;;;;;;12.75;100.00;99214.50;5074600;28;20228;-79
2023/10/06 08:55:23;;;;;;;12.47;7.73;;;;;;;12.77;100.00;99221.41;5075451;28;20592;-79
2023/10/06 08:57:52;;;;;;;14.07;7.80;;;;;;;12.85;100.00;99218.31;5078612;28;20216;-83
2023/10/06 09:00:22;;;;;;;12.07;7.83;;;;;;;13.00;100.00;99206.75;5078658;28;20217;-81
2023/10/06 09:02:49;;;;;;;13.83;7.60;;;;;;;13.14;100.00;99209.44;5075381;28;20224;-81
2023/10/06 09:05:16;;;;;;;11.97;7.17;;;;;;;13.20;100.00;99204.56;5074416;28;20204;-81
2023/10/06 09:07:59;;;;;;;12.27;7.13;;;;;;;13.35;100.00;99202.75;5074443;28;20208;-81
2023/10/06 09:10:29;;;;;;;10.63;8.48;;;;;;;13.59;100.00;99203.84;5071308;28;20461;-83
2023/10/06 09:13:02;;;;;;;15.50;8.30;;;;;;;13.62;100.00;99193.03;5076276;28;20237;-83
2023/10/06 09:15:29;;;;;;;12.70;7.50;;;;;;;13.65;100.00;99201.66;5076136;28;20209;-83
2023/10/06 09:17:57;;;;;;;11.17;6.93;;;;;;;13.61;100.00;99192.19;5076088;28;20200;-83
2023/10/06 09:20:32;;;;;;;12.00;6.97;;;;;;;13.67;100.00;99198.88;5076647;28;20740;-83
2023/10/06 09:22:59;;;;;;;11.53;6.80;;;;;;;13.79;100.00;99192.78;5076243;28;20213;-84
2023/10/06 09:25:29;;;;;;;11.10;6.50;;;;;;;13.79;100.00;99198.09;5076337;28;20214;-86
2023/10/06 09:28:04;;;;;;;11.83;6.50;;;;;;;13.92;100.00;99183.91;5076381;28;20220;-83
2023/10/06 09:30:31;;;;;;;9.53;6.43;;;;;;;13.97;100.00;99180.94;5076541;28;20627;-86
2023/10/06 09:33:05;;;;;;;11.63;6.77;;;;;;;14.02;100.00;99178.81;5076799;28;20221;-85
2023/10/06 09:35:32;;;;;;;10.80;6.70;;;;;;;14.22;100.00;99173.91;5074854;28;20215;-84
2023/10/06 09:38:11;;;;;;;8.63;6.03;;;;;;;14.39;100.00;99162.13;5075656;28;20216;-84
2023/10/06 09:40:42;;;;;;;9.90;5.97;;;;;;;14.50;100.00;99170.22;5075839;28;20607;-83
2023/10/06 09:43:14;;;;;;;10.50;5.40;;;;;;;14.68;100.00;99153.00;5075138;28;20547;-83
2023/10/06 09:45:42;;;;;;;6.57;5.00;;;;;;;14.90;100.00;99153.22;5075465;28;20579;-82
2023/10/06 09:48:13;;;;;;;8.85;5.80;;;;;;;15.06;98.70;99148.50;5075627;28;20479;-81
2023/10/06 09:50:43;;;;;;;9.87;6.00;;;;;;;15.09;94.14;99137.63;5075365;28;20714;-81
2023/10/06 09:53:12;;;;;;;8.00;5.10;;;;;;;15.15;93.62;99132.69;5075281;28;20230;-84
2023/10/06 09:55:40;;;;;;;7.87;4.90;;;;;;;15.24;93.79;99137.38;5075858;28;20219;-82
2023/10/06 09:58:08;;;;;;;8.50;4.73;;;;;;;15.32;92.27;99131.47;5075248;28;20211;-82
2023/10/06 10:00:39;;;;;;;8.90;5.40;;;;;;;15.43;91.05;99127.13;5074565;28;20669;-82
2023/10/06 10:03:07;;;;;;;7.17;4.70;;;;;;;15.51;89.72;99122.06;5075735;28;20241;-82
2023/10/06 10:05:38;;;;;;;9.03;5.20;;;;;;;15.59;88.08;99116.19;5067982;28;20601;-82
2023/10/06 10:08:05;;;;;;;8.40;4.90;;;;;;;15.77;90.59;99122.81;5042771;28;20657;-82
2023/10/06 10:10:34;;;;;;;7.13;4.67;;;;;;;15.84;89.61;99114.25;5059355;28;20204;-82
2023/10/06 10:13:34;;;;;;;9.30;5.23;;;;;;;15.87;86.49;99102.50;5046923;28;20204;-82
2023/10/06 10:16:17;;;;;;;8.87;4.80;;;;;;;15.95;85.88;99102.78;5032975;28;20227;-82
2023/10/06 10:18:53;;;;;;;7.60;4.97;;;;;;;16.13;85.15;99112.88;5040048;28;20222;-78
2023/10/06 10:21:22;;;;;;;7.00;4.23;;;;;;;16.15;84.20;99106.47;5042172;28;20233;-80
2023/10/06 10:23:49;;;;;;;7.07;4.60;;;;;;;16.20;83.45;99106.13;5051353;28;20493;-78
2023/10/06 10:26:22;;;;;;;7.73;4.90;;;;;;;16.26;80.57;99098.50;5049640;28;20305;-80
2023/10/06 10:29:24;;;;;;;9.17;5.10;;;;;;;16.36;80.40;99104.84;5054377;28;20219;-81
2023/10/06 10:31:56;;;;;;;6.60;4.63;;;;;;;16.42;79.97;99096.41;4723294;28;20247;-78
2023/10/06 10:34:23;;;;;;;6.93;4.53;;;;;;;16.54;79.43;99089.25;5028757;28;20948;-79
2023/10/06 10:37:12;;;;;;;6.57;4.40;;;;;;;16.60;79.19;99086.97;5054156;28;20212;-79
2023/10/06 10:39:41;;;;;;;6.47;3.93;;;;;;;16.65;76.56;99074.06;5054243;28;20208;-77
2023/10/06 10:42:09;;;;;;;7.33;4.20;;;;;;;16.79;75.39;99065.84;5051744;28;20228;-77
2023/10/06 10:44:36;;;;;;;7.53;4.53;;;;;;;16.96;75.35;99059.97;5052465;28;20200;-77
2023/10/06 10:47:06;;;;;;;5.80;4.23;;;;;;;17.08;75.68;99072.34;5056205;28;20210;-78
2023/10/06 10:49:33;;;;;;;10.97;5.27;;;;;;;17.29;73.42;99051.91;5058681;28;20337;-79
2023/10/06 10:52:02;;;;;;;7.90;4.90;;;;;;;17.44;73.46;99057.88;5058860;28;20227;-78
2023/10/06 10:54:33;;;;;;;9.67;4.63;;;;;;;17.60;70.89;99043.09;5059571;28;20335;-78
2023/10/06 10:57:06;;;;;;;6.93;4.70;;;;;;;17.52;70.28;99040.22;5059149;28;20266;-78
2023/10/06 11:00:13;;;;;;;8.40;4.63;;;;;;;17.62;72.62;99045.66;5058500;28;20208;-80
2023/10/06 11:02:43;;;;;;;9.40;4.53;;;;;;;17.65;73.19;99046.25;5058647;28;20246;-80
2023/10/06 11:05:10;;;;;;;7.80;4.43;;;;;;;17.74;69.70;99013.38;5058979;28;20435;-81
2023/10/06 11:07:37;;;;;;;6.57;4.33;;;;;;;17.71;70.21;99021.66;5059356;28;20204;-80
2023/10/06 11:10:04;;;;;;;7.87;4.17;;;;;;;17.83;71.76;99023.31;5059126;28;20566;-79
2023/10/06 11:12:31;;;;;;;6.73;4.20;;;;;;;17.79;70.54;99021.03;5056117;28;20228;-78
2023/10/06 11:15:13;;;;;;;6.53;3.93;;;;;;;17.87;72.39;99027.41;5056558;28;20601;-78
2023/10/06 11:17:42;;;;;;;5.80;4.10;;;;;;;17.94;72.17;99023.25;5056907;28;20273;-79
2023/10/06 11:20:15;;;;;;;6.23;4.23;;;;;;;17.99;71.53;99022.84;5054273;28;20204;-79
2023/10/06 11:22:52;;;;;;;6.53;4.20;;;;;;;18.04;70.99;99018.78;5054655;28;20232;-79
2023/10/06 11:25:19;;;;;;;8.27;4.73;;;;;;;17.93;69.96;99008.16;5055034;28;20207;-77
2023/10/06 11:27:56;;;;;;;7.63;3.97;;;;;;;17.98;67.99;98989.88;5052894;28;20819;-81
2023/10/06 11:30:23;;;;;;;8.03;5.00;;;;;;;18.04;67.05;98984.03;5051868;28;20262;-81
2023/10/06 11:32:51;;;;;;;6.73;4.20;;;;;;;18.00;66.70;98973.72;5055337;28;20236;-81
2023/10/06 11:35:18;;;;;;;9.30;4.30;;;;;;;18.06;67.85;98986.56;5056697;28;20701;-81
2023/10/06 11:37:45;;;;;;;6.17;4.20;;;;;;;18.10;67.31;98977.31;5064232;28;20206;-81